sensor_id;sensor_type;location;lat;lon;timestamp;P1;durP1;ratioP1;P2;durP2;ratioP2
32637;SDS011;19045;52.268;10.506;2023-04-24T00:01:46;1.17;;;0.90;;
32637;SDS011;19045;52.268;10.506;2023-04-24T00:04:12;1.15;;;0.80;;
32637;SDS011;19045;52.268;10.506;2023-04-24T00:06:41;2.63;;;1.17;;
32637;SDS011;19045;52.268;10.506;2023-04-24T00:09:08;5.95;;;0.93;;
32637;SDS011;19045;52.268;10.506;2023-04-24T00:11:37;1.10;;;0.85;;
32637;SDS011;19045;52.268;10.506;2023-04-24T00:14:04;1.65;;;1.05;;
32637;SDS011;19045;52.268;10.506;2023-04-24T00:16:30;3.10;;;1.13;;
32637;SDS011;19045;52.268;10.506;2023-04-24T00:18:59;2.47;;;0.88;;
32637;SDS011;19045;52.268;10.506;2023-04-24T00:21:26;3.40;;;1.20;;
32637;SDS011;19045;52.268;10.506;2023-04-24T00:23:52;2.33;;;1.08;;
32637;SDS011;19045;52.268;10.506;2023-04-24T00:26:19;2.75;;;1.67;;
32637;SDS011;19045;52.268;10.506;2023-04-24T00:28:47;2.97;;;1.50;;
32637;SDS011;19045;52.268;10.506;2023-04-24T00:31:14;2.92;;;1.50;;
32637;SDS011;19045;52.268;10.506;2023-04-24T00:33:40;2.38;;;1.83;;
32637;SDS011;19045;52.268;10.506;2023-04-24T00:36:07;10.75;;;2.97;;
32637;SDS011;19045;52.268;10.506;2023-04-24T00:38:34;17.40;;;5.47;;
32637;SDS011;19045;52.268;10.506;2023-04-24T00:41:00;16.02;;;6.10;;
32637;SDS011;19045;52.268;10.506;2023-04-24T00:43:27;18.45;;;5.93;;
32637;SDS011;19045;52.268;10.506;2023-04-24T00:45:55;11.02;;;4.03;;
32637;SDS011;19045;52.268;10.506;2023-04-24T00:48:23;7.28;;;2.22;;
32637;SDS011;19045;52.268;10.506;2023-04-24T00:50:51;7.07;;;2.40;;
32637;SDS011;19045;52.268;10.506;2023-04-24T00:53:18;2.63;;;1.40;;
32637;SDS011;19045;52.268;10.506;2023-04-24T00:55:45;3.25;;;1.40;;
32637;SDS011;19045;52.268;10.506;2023-04-24T00:58:12;1.45;;;1.35;;
32637;SDS011;19045;52.268;10.506;2023-04-24T01:00:39;2.40;;;1.23;;
32637;SDS011;19045;52.268;10.506;2023-04-24T01:03:07;2.47;;;1.27;;
32637;SDS011;19045;52.268;10.506;2023-04-24T01:05:34;3.15;;;1.70;;
32637;SDS011;19045;52.268;10.506;2023-04-24T01:08:01;6.85;;;1.60;;
32637;SDS011;19045;52.268;10.506;2023-04-24T01:10:29;6.60;;;1.55;;
32637;SDS011;19045;52.268;10.506;2023-04-24T01:12:57;6.05;;;1.92;;
32637;SDS011;19045;52.268;10.506;2023-04-24T01:15:24;7.72;;;2.47;;
32637;SDS011;19045;52.268;10.506;2023-04-24T01:17:51;7.85;;;2.17;;
32637;SDS011;19045;52.268;10.506;2023-04-24T01:20:19;7.10;;;2.20;;
32637;SDS011;19045;52.268;10.506;2023-04-24T01:22:48;5.32;;;1.67;;
32637;SDS011;19045;52.268;10.506;2023-04-24T01:25:14;4.40;;;1.48;;
32637;SDS011;19045;52.268;10.506;2023-04-24T01:27:41;5.82;;;1.70;;
32637;SDS011;19045;52.268;10.506;2023-04-24T01:30:08;5.90;;;2.38;;
32637;SDS011;19045;52.268;10.506;2023-04-24T01:32:36;3.20;;;1.58;;
32637;SDS011;19045;52.268;10.506;2023-04-24T01:35:04;4.53;;;1.10;;
32637;SDS011;19045;52.268;10.506;2023-04-24T01:37:31;5.15;;;1.42;;
32637;SDS011;19045;52.268;10.506;2023-04-24T01:39:59;1.67;;;1.20;;
32637;SDS011;19045;52.268;10.506;2023-04-24T01:42:26;3.70;;;1.30;;
32637;SDS011;19045;52.268;10.506;2023-04-24T01:44:53;2.67;;;1.48;;
32637;SDS011;19045;52.268;10.506;2023-04-24T01:47:20;4.30;;;1.38;;
32637;SDS011;19045;52.268;10.506;2023-04-24T01:49:47;5.43;;;1.55;;
32637;SDS011;19045;52.268;10.506;2023-04-24T01:52:14;3.05;;;1.77;;
32637;SDS011;19045;52.268;10.506;2023-04-24T01:54:41;3.13;;;1.70;;
32637;SDS011;19045;52.268;10.506;2023-04-24T01:57:09;3.20;;;1.40;;
32637;SDS011;19045;52.268;10.506;2023-04-24T01:59:36;13.73;;;2.03;;
32637;SDS011;19045;52.268;10.506;2023-04-24T02:02:02;5.95;;;1.30;;
32637;SDS011;19045;52.268;10.506;2023-04-24T02:04:29;5.13;;;1.80;;
32637;SDS011;19045;52.268;10.506;2023-04-24T02:06:56;3.58;;;1.65;;
32637;SDS011;19045;52.268;10.506;2023-04-24T02:09:23;5.63;;;1.60;;
32637;SDS011;19045;52.268;10.506;2023-04-24T02:11:50;4.15;;;1.60;;
32637;SDS011;19045;52.268;10.506;2023-04-24T02:14:18;1.92;;;1.42;;
32637;SDS011;19045;52.268;10.506;2023-04-24T02:16:44;3.72;;;1.45;;
32637;SDS011;19045;52.268;10.506;2023-04-24T02:19:11;5.30;;;1.35;;
32637;SDS011;19045;52.268;10.506;2023-04-24T02:21:37;1.88;;;1.33;;
32637;SDS011;19045;52.268;10.506;2023-04-24T02:24:04;4.72;;;1.35;;
32637;SDS011;19045;52.268;10.506;2023-04-24T02:26:31;2.85;;;1.30;;
32637;SDS011;19045;52.268;10.506;2023-04-24T02:28:58;2.05;;;1.45;;
32637;SDS011;19045;52.268;10.506;2023-04-24T02:31:26;3.35;;;1.05;;
32637;SDS011;19045;52.268;10.506;2023-04-24T02:33:53;3.67;;;1.33;;
32637;SDS011;19045;52.268;10.506;2023-04-24T02:36:19;2.13;;;1.10;;
32637;SDS011;19045;52.268;10.506;2023-04-24T02:38:46;1.70;;;1.10;;
32637;SDS011;19045;52.268;10.506;2023-04-24T02:41:12;1.48;;;0.90;;
32637;SDS011;19045;52.268;10.506;2023-04-24T02:43:39;3.03;;;1.20;;
32637;SDS011;19045;52.268;10.506;2023-04-24T02:46:06;1.40;;;1.00;;
32637;SDS011;19045;52.268;10.506;2023-04-24T02:48:33;5.20;;;0.98;;
32637;SDS011;19045;52.268;10.506;2023-04-24T02:51:00;3.08;;;1.05;;
32637;SDS011;19045;52.268;10.506;2023-04-24T02:53:27;3.03;;;1.30;;
32637;SDS011;19045;52.268;10.506;2023-04-24T02:55:54;1.75;;;0.88;;
32637;SDS011;19045;52.268;10.506;2023-04-24T02:58:21;3.42;;;1.13;;
32637;SDS011;19045;52.268;10.506;2023-04-24T03:00:48;2.88;;;1.40;;
32637;SDS011;19045;52.268;10.506;2023-04-24T03:03:14;2.22;;;1.23;;
32637;SDS011;19045;52.268;10.506;2023-04-24T03:05:42;1.45;;;1.10;;
32637;SDS011;19045;52.268;10.506;2023-04-24T03:08:09;2.72;;;1.02;;
32637;SDS011;19045;52.268;10.506;2023-04-24T03:10:36;2.78;;;1.10;;
32637;SDS011;19045;52.268;10.506;2023-04-24T03:13:03;1.95;;;1.13;;
32637;SDS011;19045;52.268;10.506;2023-04-24T03:15:29;1.95;;;1.20;;
32637;SDS011;19045;52.268;10.506;2023-04-24T03:17:56;5.88;;;1.65;;
32637;SDS011;19045;52.268;10.506;2023-04-24T03:20:23;1.75;;;1.10;;
32637;SDS011;19045;52.268;10.506;2023-04-24T03:22:51;4.70;;;0.80;;
32637;SDS011;19045;52.268;10.506;2023-04-24T03:25:17;0.98;;;0.90;;
32637;SDS011;19045;52.268;10.506;2023-04-24T03:27:44;4.60;;;1.15;;
32637;SDS011;19045;52.268;10.506;2023-04-24T03:30:11;1.10;;;1.00;;
32637;SDS011;19045;52.268;10.506;2023-04-24T03:32:38;4.57;;;0.90;;
32637;SDS011;19045;52.268;10.506;2023-04-24T03:35:05;1.02;;;0.77;;
32637;SDS011;19045;52.268;10.506;2023-04-24T03:37:33;3.35;;;1.00;;
32637;SDS011;19045;52.268;10.506;2023-04-24T03:40:01;2.97;;;0.98;;
32637;SDS011;19045;52.268;10.506;2023-04-24T03:42:28;1.45;;;0.63;;
32637;SDS011;19045;52.268;10.506;2023-04-24T03:44:55;1.95;;;1.20;;
32637;SDS011;19045;52.268;10.506;2023-04-24T03:47:21;1.58;;;0.73;;
32637;SDS011;19045;52.268;10.506;2023-04-24T03:49:48;1.23;;;0.77;;
32637;SDS011;19045;52.268;10.506;2023-04-24T03:52:15;1.58;;;0.90;;
32637;SDS011;19045;52.268;10.506;2023-04-24T03:54:41;1.02;;;0.95;;
32637;SDS011;19045;52.268;10.506;2023-04-24T03:57:09;0.95;;;0.80;;
32637;SDS011;19045;52.268;10.506;2023-04-24T03:59:36;2.95;;;0.73;;
32637;SDS011;19045;52.268;10.506;2023-04-24T04:02:03;1.08;;;0.95;;
32637;SDS011;19045;52.268;10.506;2023-04-24T04:04:29;0.82;;;0.70;;
32637;SDS011;19045;52.268;10.506;2023-04-24T04:06:56;1.83;;;1.20;;
32637;SDS011;19045;52.268;10.506;2023-04-24T04:09:26;0.70;;;0.70;;
32637;SDS011;19045;52.268;10.506;2023-04-24T04:11:52;2.72;;;0.95;;
32637;SDS011;19045;52.268;10.506;2023-04-24T04:14:21;2.45;;;1.02;;
32637;SDS011;19045;52.268;10.506;2023-04-24T04:16:48;0.85;;;0.75;;
32637;SDS011;19045;52.268;10.506;2023-04-24T04:19:14;1.75;;;0.93;;
32637;SDS011;19045;52.268;10.506;2023-04-24T04:21:41;1.58;;;1.00;;
32637;SDS011;19045;52.268;10.506;2023-04-24T04:24:08;2.90;;;0.98;;
32637;SDS011;19045;52.268;10.506;2023-04-24T04:26:34;1.15;;;0.73;;
32637;SDS011;19045;52.268;10.506;2023-04-24T04:29:02;4.07;;;1.00;;
32637;SDS011;19045;52.268;10.506;2023-04-24T04:31:30;2.25;;;0.93;;
32637;SDS011;19045;52.268;10.506;2023-04-24T04:33:57;2.35;;;1.27;;
32637;SDS011;19045;52.268;10.506;2023-04-24T04:36:24;1.02;;;0.70;;
32637;SDS011;19045;52.268;10.506;2023-04-24T04:38:51;3.88;;;1.25;;
32637;SDS011;19045;52.268;10.506;2023-04-24T04:41:17;5.53;;;0.95;;
32637;SDS011;19045;52.268;10.506;2023-04-24T04:43:45;3.03;;;1.20;;
32637;SDS011;19045;52.268;10.506;2023-04-24T04:46:12;3.00;;;0.80;;
32637;SDS011;19045;52.268;10.506;2023-04-24T04:48:40;2.20;;;1.00;;
32637;SDS011;19045;52.268;10.506;2023-04-24T04:51:07;1.48;;;1.10;;
32637;SDS011;19045;52.268;10.506;2023-04-24T04:53:33;2.25;;;1.15;;
32637;SDS011;19045;52.268;10.506;2023-04-24T04:56:00;2.25;;;0.90;;
32637;SDS011;19045;52.268;10.506;2023-04-24T04:58:27;1.88;;;1.10;;
32637;SDS011;19045;52.268;10.506;2023-04-24T05:00:53;3.22;;;1.25;;
32637;SDS011;19045;52.268;10.506;2023-04-24T05:03:20;1.23;;;0.82;;
32637;SDS011;19045;52.268;10.506;2023-04-24T05:05:48;1.80;;;1.08;;
32637;SDS011;19045;52.268;10.506;2023-04-24T05:08:14;2.47;;;1.10;;
32637;SDS011;19045;52.268;10.506;2023-04-24T05:10:41;1.95;;;1.20;;
32637;SDS011;19045;52.268;10.506;2023-04-24T05:13:08;1.40;;;1.02;;
32637;SDS011;19045;52.268;10.506;2023-04-24T05:15:35;3.40;;;1.40;;
32637;SDS011;19045;52.268;10.506;2023-04-24T05:18:02;2.38;;;1.13;;
32637;SDS011;19045;52.268;10.506;2023-04-24T05:20:29;2.97;;;1.65;;
32637;SDS011;19045;52.268;10.506;2023-04-24T05:22:57;3.47;;;1.40;;
32637;SDS011;19045;52.268;10.506;2023-04-24T05:25:23;5.07;;;1.73;;
32637;SDS011;19045;52.268;10.506;2023-04-24T05:27:50;3.45;;;2.03;;
32637;SDS011;19045;52.268;10.506;2023-04-24T05:30:18;6.30;;;2.20;;
32637;SDS011;19045;52.268;10.506;2023-04-24T05:32:45;2.63;;;1.42;;
32637;SDS011;19045;52.268;10.506;2023-04-24T05:35:12;3.95;;;1.60;;
32637;SDS011;19045;52.268;10.506;2023-04-24T05:37:38;9.73;;;5.38;;
32637;SDS011;19045;52.268;10.506;2023-04-24T05:40:07;3.80;;;2.00;;
32637;SDS011;19045;52.268;10.506;2023-04-24T05:42:35;4.80;;;1.30;;
32637;SDS011;19045;52.268;10.506;2023-04-24T05:45:02;1.60;;;1.00;;
32637;SDS011;19045;52.268;10.506;2023-04-24T05:47:29;4.15;;;0.98;;
32637;SDS011;19045;52.268;10.506;2023-04-24T05:49:56;3.75;;;1.00;;
32637;SDS011;19045;52.268;10.506;2023-04-24T05:52:23;3.20;;;1.02;;
32637;SDS011;19045;52.268;10.506;2023-04-24T05:54:49;1.75;;;0.80;;
32637;SDS011;19045;52.268;10.506;2023-04-24T05:57:18;0.80;;;0.70;;
32637;SDS011;19045;52.268;10.506;2023-04-24T05:59:45;4.60;;;0.95;;
32637;SDS011;19045;52.268;10.506;2023-04-24T06:02:11;1.13;;;0.70;;
32637;SDS011;19045;52.268;10.506;2023-04-24T06:04:38;2.28;;;0.90;;
32637;SDS011;19045;52.268;10.506;2023-04-24T06:07:04;1.67;;;0.93;;
32637;SDS011;19045;52.268;10.506;2023-04-24T06:09:31;2.40;;;0.90;;
32637;SDS011;19045;52.268;10.506;2023-04-24T06:11:58;4.32;;;1.25;;
32637;SDS011;19045;52.268;10.506;2023-04-24T06:14:26;2.22;;;1.10;;
32637;SDS011;19045;52.268;10.506;2023-04-24T06:16:53;3.20;;;0.90;;
32637;SDS011;19045;52.268;10.506;2023-04-24T06:19:20;5.05;;;1.10;;
32637;SDS011;19045;52.268;10.506;2023-04-24T06:21:46;2.15;;;1.20;;
32637;SDS011;19045;52.268;10.506;2023-04-24T06:24:14;3.47;;;1.17;;
32637;SDS011;19045;52.268;10.506;2023-04-24T06:26:41;3.67;;;1.33;;
32637;SDS011;19045;52.268;10.506;2023-04-24T06:29:08;3.28;;;1.20;;
32637;SDS011;19045;52.268;10.506;2023-04-24T06:31:36;2.13;;;1.23;;
32637;SDS011;19045;52.268;10.506;2023-04-24T06:34:02;7.20;;;1.30;;
32637;SDS011;19045;52.268;10.506;2023-04-24T06:36:29;4.80;;;1.00;;
32637;SDS011;19045;52.268;10.506;2023-04-24T06:38:56;1.85;;;1.00;;
32637;SDS011;19045;52.268;10.506;2023-04-24T06:41:23;1.77;;;0.90;;
32637;SDS011;19045;52.268;10.506;2023-04-24T06:43:50;1.50;;;0.95;;
32637;SDS011;19045;52.268;10.506;2023-04-24T06:46:16;4.18;;;1.17;;
32637;SDS011;19045;52.268;10.506;2023-04-24T06:48:44;3.33;;;0.93;;
32637;SDS011;19045;52.268;10.506;2023-04-24T06:51:11;1.58;;;1.20;;
32637;SDS011;19045;52.268;10.506;2023-04-24T06:53:40;2.22;;;1.10;;
32637;SDS011;19045;52.268;10.506;2023-04-24T06:56:07;4.38;;;1.65;;
32637;SDS011;19045;52.268;10.506;2023-04-24T06:58:33;2.10;;;1.15;;
32637;SDS011;19045;52.268;10.506;2023-04-24T07:01:00;1.92;;;1.20;;
32637;SDS011;19045;52.268;10.506;2023-04-24T07:03:26;0.93;;;0.85;;
32637;SDS011;19045;52.268;10.506;2023-04-24T07:05:55;3.83;;;1.20;;
32637;SDS011;19045;52.268;10.506;2023-04-24T07:08:23;3.40;;;1.10;;
32637;SDS011;19045;52.268;10.506;2023-04-24T07:10:50;3.05;;;1.48;;
32637;SDS011;19045;52.268;10.506;2023-04-24T07:13:17;2.75;;;1.33;;
32637;SDS011;19045;52.268;10.506;2023-04-24T07:15:43;2.03;;;1.20;;
32637;SDS011;19045;52.268;10.506;2023-04-24T07:18:10;1.30;;;1.02;;
32637;SDS011;19045;52.268;10.506;2023-04-24T07:20:37;5.10;;;1.05;;
32637;SDS011;19045;52.268;10.506;2023-04-24T07:23:05;2.45;;;1.00;;
32637;SDS011;19045;52.268;10.506;2023-04-24T07:25:31;3.17;;;1.10;;
32637;SDS011;19045;52.268;10.506;2023-04-24T07:27:58;2.30;;;0.80;;
32637;SDS011;19045;52.268;10.506;2023-04-24T07:30:40;2.75;;;1.13;;
32637;SDS011;19045;52.268;10.506;2023-04-24T07:33:07;2.65;;;0.70;;
32637;SDS011;19045;52.268;10.506;2023-04-24T07:35:33;1.02;;;1.00;;
32637;SDS011;19045;52.268;10.506;2023-04-24T07:38:00;1.45;;;1.00;;
32637;SDS011;19045;52.268;10.506;2023-04-24T07:40:28;1.20;;;1.10;;
32637;SDS011;19045;52.268;10.506;2023-04-24T07:42:55;2.58;;;1.30;;
32637;SDS011;19045;52.268;10.506;2023-04-24T07:45:22;3.28;;;1.70;;
32637;SDS011;19045;52.268;10.506;2023-04-24T07:47:51;8.30;;;1.55;;
32637;SDS011;19045;52.268;10.506;2023-04-24T07:50:17;1.42;;;1.33;;
32637;SDS011;19045;52.268;10.506;2023-04-24T07:52:44;1.40;;;1.30;;
32637;SDS011;19045;52.268;10.506;2023-04-24T07:55:11;3.83;;;2.22;;
32637;SDS011;19045;52.268;10.506;2023-04-24T07:57:39;4.57;;;1.55;;
32637;SDS011;19045;52.268;10.506;2023-04-24T08:00:06;4.57;;;1.60;;
32637;SDS011;19045;52.268;10.506;2023-04-24T08:02:33;1.38;;;1.27;;
32637;SDS011;19045;52.268;10.506;2023-04-24T08:05:00;1.55;;;1.42;;
32637;SDS011;19045;52.268;10.506;2023-04-24T08:07:28;1.50;;;1.33;;
32637;SDS011;19045;52.268;10.506;2023-04-24T08:09:54;2.75;;;1.50;;
32637;SDS011;19045;52.268;10.506;2023-04-24T08:12:21;3.40;;;1.40;;
32637;SDS011;19045;52.268;10.506;2023-04-24T08:14:49;1.92;;;1.40;;
32637;SDS011;19045;52.268;10.506;2023-04-24T08:17:16;1.45;;;1.35;;
32637;SDS011;19045;52.268;10.506;2023-04-24T08:19:42;5.25;;;1.90;;
32637;SDS011;19045;52.268;10.506;2023-04-24T08:22:13;3.17;;;1.70;;
32637;SDS011;19045;52.268;10.506;2023-04-24T08:24:39;2.33;;;1.45;;
32637;SDS011;19045;52.268;10.506;2023-04-24T08:27:06;1.42;;;1.30;;
32637;SDS011;19045;52.268;10.506;2023-04-24T08:29:34;1.40;;;1.30;;
32637;SDS011;19045;52.268;10.506;2023-04-24T08:32:02;3.15;;;1.88;;
32637;SDS011;19045;52.268;10.506;2023-04-24T08:34:28;3.47;;;1.67;;
32637;SDS011;19045;52.268;10.506;2023-04-24T08:36:55;2.63;;;1.63;;
32637;SDS011;19045;52.268;10.506;2023-04-24T08:39:24;4.57;;;1.80;;
32637;SDS011;19045;52.268;10.506;2023-04-24T08:41:50;3.53;;;2.10;;
32637;SDS011;19045;52.268;10.506;2023-04-24T08:44:19;3.33;;;1.60;;
32637;SDS011;19045;52.268;10.506;2023-04-24T08:46:46;2.13;;;1.52;;
32637;SDS011;19045;52.268;10.506;2023-04-24T08:49:15;2.10;;;1.83;;
32637;SDS011;19045;52.268;10.506;2023-04-24T08:51:42;3.50;;;2.22;;
32637;SDS011;19045;52.268;10.506;2023-04-24T08:54:09;3.35;;;1.90;;
32637;SDS011;19045;52.268;10.506;2023-04-24T08:56:37;6.80;;;2.30;;
32637;SDS011;19045;52.268;10.506;2023-04-24T08:59:06;3.80;;;2.38;;
32637;SDS011;19045;52.268;10.506;2023-04-24T09:01:34;3.45;;;2.50;;
32637;SDS011;19045;52.268;10.506;2023-04-24T09:04:04;4.07;;;2.25;;
32637;SDS011;19045;52.268;10.506;2023-04-24T09:06:36;4.70;;;2.50;;
32637;SDS011;19045;52.268;10.506;2023-04-24T09:09:03;3.88;;;2.75;;
32637;SDS011;19045;52.268;10.506;2023-04-24T09:11:30;3.08;;;2.58;;
32637;SDS011;19045;52.268;10.506;2023-04-24T09:13:58;4.38;;;2.17;;
32637;SDS011;19045;52.268;10.506;2023-04-24T09:16:25;4.15;;;2.40;;
32637;SDS011;19045;52.268;10.506;2023-04-24T09:18:52;3.38;;;2.20;;
32637;SDS011;19045;52.268;10.506;2023-04-24T09:21:20;5.78;;;3.05;;
32637;SDS011;19045;52.268;10.506;2023-04-24T09:23:49;4.15;;;2.75;;
32637;SDS011;19045;52.268;10.506;2023-04-24T09:26:24;3.30;;;3.00;;
32637;SDS011;19045;52.268;10.506;2023-04-24T09:28:50;5.43;;;2.40;;
32637;SDS011;19045;52.268;10.506;2023-04-24T09:31:18;2.28;;;1.98;;
32637;SDS011;19045;52.268;10.506;2023-04-24T09:33:53;3.50;;;2.03;;
32637;SDS011;19045;52.268;10.506;2023-04-24T09:36:26;2.92;;;2.15;;
32637;SDS011;19045;52.268;10.506;2023-04-24T09:38:55;3.85;;;2.38;;
32637;SDS011;19045;52.268;10.506;2023-04-24T09:41:24;5.40;;;3.30;;
32637;SDS011;19045;52.268;10.506;2023-04-24T09:43:53;4.22;;;2.17;;
32637;SDS011;19045;52.268;10.506;2023-04-24T09:46:20;3.78;;;3.03;;
32637;SDS011;19045;52.268;10.506;2023-04-24T09:48:47;7.43;;;2.40;;
32637;SDS011;19045;52.268;10.506;2023-04-24T09:51:17;2.97;;;2.50;;
32637;SDS011;19045;52.268;10.506;2023-04-24T09:54:01;3.08;;;2.50;;
32637;SDS011;19045;52.268;10.506;2023-04-24T09:56:28;3.58;;;2.45;;
32637;SDS011;19045;52.268;10.506;2023-04-24T09:59:04;2.22;;;2.03;;
32637;SDS011;19045;52.268;10.506;2023-04-24T10:01:32;3.72;;;2.65;;
32637;SDS011;19045;52.268;10.506;2023-04-24T10:03:59;2.33;;;1.88;;
32637;SDS011;19045;52.268;10.506;2023-04-24T10:06:29;2.50;;;1.90;;
32637;SDS011;19045;52.268;10.506;2023-04-24T10:08:59;4.18;;;1.75;;
32637;SDS011;19045;52.268;10.506;2023-04-24T10:11:27;2.63;;;2.00;;
32637;SDS011;19045;52.268;10.506;2023-04-24T10:13:54;3.55;;;1.85;;
32637;SDS011;19045;52.268;10.506;2023-04-24T10:16:22;2.58;;;1.77;;
32637;SDS011;19045;52.268;10.506;2023-04-24T10:18:49;3.45;;;2.30;;
32637;SDS011;19045;52.268;10.506;2023-04-24T10:21:16;3.88;;;2.03;;
32637;SDS011;19045;52.268;10.506;2023-04-24T10:23:43;3.05;;;1.95;;
32637;SDS011;19045;52.268;10.506;2023-04-24T10:26:12;4.38;;;2.33;;
32637;SDS011;19045;52.268;10.506;2023-04-24T10:28:43;4.82;;;2.80;;
32637;SDS011;19045;52.268;10.506;2023-04-24T10:31:12;3.60;;;2.78;;
32637;SDS011;19045;52.268;10.506;2023-04-24T10:33:39;3.13;;;2.47;;
32637;SDS011;19045;52.268;10.506;2023-04-24T10:36:08;3.90;;;2.40;;
32637;SDS011;19045;52.268;10.506;2023-04-24T10:38:36;3.47;;;2.25;;
32637;SDS011;19045;52.268;10.506;2023-04-24T10:41:08;2.35;;;2.03;;
32637;SDS011;19045;52.268;10.506;2023-04-24T10:43:41;3.15;;;2.42;;
32637;SDS011;19045;52.268;10.506;2023-04-24T10:46:10;4.13;;;2.70;;
32637;SDS011;19045;52.268;10.506;2023-04-24T10:48:41;3.42;;;2.53;;
32637;SDS011;19045;52.268;10.506;2023-04-24T10:51:11;5.13;;;2.30;;
32637;SDS011;19045;52.268;10.506;2023-04-24T10:53:39;3.30;;;1.90;;
32637;SDS011;19045;52.268;10.506;2023-04-24T10:56:06;4.43;;;1.75;;
32637;SDS011;19045;52.268;10.506;2023-04-24T10:58:38;1.98;;;1.77;;
32637;SDS011;19045;52.268;10.506;2023-04-24T11:01:11;4.68;;;1.65;;
32637;SDS011;19045;52.268;10.506;2023-04-24T11:03:50;3.63;;;1.67;;
32637;SDS011;19045;52.268;10.506;2023-04-24T11:06:20;2.25;;;1.80;;
32637;SDS011;19045;52.268;10.506;2023-04-24T11:08:58;2.33;;;1.70;;
32637;SDS011;19045;52.268;10.506;2023-04-24T11:11:29;1.70;;;1.40;;
32637;SDS011;19045;52.268;10.506;2023-04-24T11:14:03;1.98;;;1.50;;
32637;SDS011;19045;52.268;10.506;2023-04-24T11:16:34;4.18;;;1.40;;
32637;SDS011;19045;52.268;10.506;2023-04-24T11:19:04;1.83;;;1.33;;
32637;SDS011;19045;52.268;10.506;2023-04-24T11:21:32;2.42;;;1.60;;
32637;SDS011;19045;52.268;10.506;2023-04-24T11:24:25;1.85;;;1.25;;
32637;SDS011;19045;52.268;10.506;2023-04-24T11:26:54;1.65;;;1.40;;
32637;SDS011;19045;52.268;10.506;2023-04-24T11:29:22;4.68;;;1.50;;
32637;SDS011;19045;52.268;10.506;2023-04-24T11:31:50;2.58;;;1.40;;
32637;SDS011;19045;52.268;10.506;2023-04-24T11:34:17;2.42;;;1.40;;
32637;SDS011;19045;52.268;10.506;2023-04-24T11:36:45;1.52;;;1.10;;
32637;SDS011;19045;52.268;10.506;2023-04-24T11:39:13;1.38;;;1.27;;
32637;SDS011;19045;52.268;10.506;2023-04-24T11:41:40;1.60;;;1.35;;
32637;SDS011;19045;52.268;10.506;2023-04-24T11:44:07;3.45;;;1.73;;
32637;SDS011;19045;52.268;10.506;2023-04-24T11:46:35;2.42;;;1.48;;
32637;SDS011;19045;52.268;10.506;2023-04-24T11:49:06;1.67;;;1.30;;
32637;SDS011;19045;52.268;10.506;2023-04-24T11:51:33;3.53;;;1.17;;
32637;SDS011;19045;52.268;10.506;2023-04-24T11:54:00;2.72;;;1.40;;
32637;SDS011;19045;52.268;10.506;2023-04-24T11:56:27;2.17;;;1.40;;
32637;SDS011;19045;52.268;10.506;2023-04-24T11:58:53;1.73;;;1.40;;
32637;SDS011;19045;52.268;10.506;2023-04-24T12:01:20;3.45;;;1.50;;
32637;SDS011;19045;52.268;10.506;2023-04-24T12:03:48;2.45;;;1.42;;
32637;SDS011;19045;52.268;10.506;2023-04-24T12:06:17;1.52;;;1.42;;
32637;SDS011;19045;52.268;10.506;2023-04-24T12:08:47;2.30;;;1.60;;
32637;SDS011;19045;52.268;10.506;2023-04-24T12:11:15;2.63;;;1.40;;
32637;SDS011;19045;52.268;10.506;2023-04-24T12:13:43;2.53;;;2.10;;
32637;SDS011;19045;52.268;10.506;2023-04-24T12:16:11;7.32;;;1.98;;
32637;SDS011;19045;52.268;10.506;2023-04-24T12:18:41;2.55;;;1.90;;
32637;SDS011;19045;52.268;10.506;2023-04-24T12:21:15;6.45;;;1.75;;
32637;SDS011;19045;52.268;10.506;2023-04-24T12:23:44;4.90;;;1.55;;
32637;SDS011;19045;52.268;10.506;2023-04-24T12:26:11;2.28;;;1.60;;
32637;SDS011;19045;52.268;10.506;2023-04-24T12:28:38;4.47;;;1.40;;
32637;SDS011;19045;52.268;10.506;2023-04-24T12:31:06;1.38;;;1.27;;
32637;SDS011;19045;52.268;10.506;2023-04-24T12:33:33;2.83;;;1.42;;
32637;SDS011;19045;52.268;10.506;2023-04-24T12:36:00;2.72;;;1.67;;
32637;SDS011;19045;52.268;10.506;2023-04-24T12:38:28;2.55;;;1.60;;
32637;SDS011;19045;52.268;10.506;2023-04-24T12:41:02;2.13;;;1.48;;
32637;SDS011;19045;52.268;10.506;2023-04-24T12:43:30;2.22;;;1.30;;
32637;SDS011;19045;52.268;10.506;2023-04-24T12:45:57;2.78;;;1.50;;
32637;SDS011;19045;52.268;10.506;2023-04-24T12:48:24;1.55;;;1.45;;
32637;SDS011;19045;52.268;10.506;2023-04-24T12:50:51;1.90;;;1.70;;
32637;SDS011;19045;52.268;10.506;2023-04-24T12:53:17;2.28;;;1.45;;
32637;SDS011;19045;52.268;10.506;2023-04-24T12:55:45;1.60;;;1.10;;
32637;SDS011;19045;52.268;10.506;2023-04-24T12:58:17;1.20;;;1.10;;
32637;SDS011;19045;52.268;10.506;2023-04-24T13:00:45;1.15;;;1.05;;
32637;SDS011;19045;52.268;10.506;2023-04-24T13:03:11;4.85;;;1.05;;
32637;SDS011;19045;52.268;10.506;2023-04-24T13:05:38;1.60;;;0.50;;
32637;SDS011;19045;52.268;10.506;2023-04-24T13:08:05;0.57;;;0.38;;
32637;SDS011;19045;52.268;10.506;2023-04-24T13:10:32;0.30;;;0.30;;
32637;SDS011;19045;52.268;10.506;2023-04-24T13:13:00;1.33;;;0.50;;
32637;SDS011;19045;52.268;10.506;2023-04-24T13:15:26;0.47;;;0.47;;
32637;SDS011;19045;52.268;10.506;2023-04-24T13:17:53;0.60;;;0.60;;
32637;SDS011;19045;52.268;10.506;2023-04-24T13:20:20;0.52;;;0.52;;
32637;SDS011;19045;52.268;10.506;2023-04-24T13:22:46;0.98;;;0.65;;
32637;SDS011;19045;52.268;10.506;2023-04-24T13:25:13;1.38;;;1.13;;
32637;SDS011;19045;52.268;10.506;2023-04-24T13:27:41;1.52;;;0.82;;
32637;SDS011;19045;52.268;10.506;2023-04-24T13:30:10;0.70;;;0.68;;
32637;SDS011;19045;52.268;10.506;2023-04-24T13:32:37;1.17;;;0.70;;
32637;SDS011;19045;52.268;10.506;2023-04-24T13:35:04;0.80;;;0.80;;
32637;SDS011;19045;52.268;10.506;2023-04-24T13:37:31;0.68;;;0.50;;
32637;SDS011;19045;52.268;10.506;2023-04-24T13:39:58;0.85;;;0.60;;
32637;SDS011;19045;52.268;10.506;2023-04-24T13:42:24;5.18;;;0.80;;
32637;SDS011;19045;52.268;10.506;2023-04-24T13:44:51;3.25;;;0.60;;
32637;SDS011;19045;52.268;10.506;2023-04-24T13:47:20;2.08;;;0.50;;
32637;SDS011;19045;52.268;10.506;2023-04-24T13:49:47;1.50;;;0.70;;
32637;SDS011;19045;52.268;10.506;2023-04-24T13:52:13;1.65;;;1.13;;
32637;SDS011;19045;52.268;10.506;2023-04-24T13:54:40;1.77;;;1.55;;
32637;SDS011;19045;52.268;10.506;2023-04-24T13:57:10;3.08;;;1.70;;
32637;SDS011;19045;52.268;10.506;2023-04-24T13:59:36;3.42;;;1.73;;
32637;SDS011;19045;52.268;10.506;2023-04-24T14:02:03;1.73;;;1.42;;
32637;SDS011;19045;52.268;10.506;2023-04-24T14:04:31;1.80;;;1.50;;
32637;SDS011;19045;52.268;10.506;2023-04-24T14:06:58;1.50;;;1.40;;
32637;SDS011;19045;52.268;10.506;2023-04-24T14:09:24;1.85;;;1.50;;
32637;SDS011;19045;52.268;10.506;2023-04-24T14:11:54;2.55;;;1.60;;
32637;SDS011;19045;52.268;10.506;2023-04-24T14:14:20;3.22;;;1.23;;
32637;SDS011;19045;52.268;10.506;2023-04-24T14:16:47;1.20;;;1.10;;
32637;SDS011;19045;52.268;10.506;2023-04-24T14:19:16;1.20;;;1.10;;
32637;SDS011;19045;52.268;10.506;2023-04-24T14:21:45;1.95;;;1.35;;
32637;SDS011;19045;52.268;10.506;2023-04-24T14:24:23;1.00;;;1.00;;
32637;SDS011;19045;52.268;10.506;2023-04-24T14:26:50;0.82;;;0.82;;
32637;SDS011;19045;52.268;10.506;2023-04-24T14:29:16;1.10;;;0.85;;
32637;SDS011;19045;52.268;10.506;2023-04-24T14:31:44;1.15;;;0.88;;
32637;SDS011;19045;52.268;10.506;2023-04-24T14:34:11;2.05;;;1.13;;
32637;SDS011;19045;52.268;10.506;2023-04-24T14:36:37;1.20;;;0.98;;